sensor_id;sensor_type;location;lat;lon;timestamp;P1;durP1;ratioP1;P2;durP2;ratioP2
30398;SDS011;17195;50.838;7.214;2022-07-23T00:02:08;16.55;;;13.27;;
30398;SDS011;17195;50.838;7.214;2022-07-23T00:04:33;19.45;;;13.75;;
30398;SDS011;17195;50.838;7.214;2022-07-23T00:06:59;21.13;;;15.52;;
30398;SDS011;17195;50.838;7.214;2022-07-23T00:09:24;17.13;;;13.57;;
30398;SDS011;17195;50.838;7.214;2022-07-23T00:11:50;19.02;;;14.30;;
30398;SDS011;17195;50.838;7.214;2022-07-23T00:14:15;15.43;;;12.85;;
30398;SDS011;17195;50.838;7.214;2022-07-23T00:16:41;14.75;;;12.30;;
30398;SDS011;17195;50.838;7.214;2022-07-23T00:19:07;12.85;;;11.15;;
30398;SDS011;17195;50.838;7.214;2022-07-23T00:21:32;19.17;;;13.50;;
30398;SDS011;17195;50.838;7.214;2022-07-23T00:23:58;17.65;;;12.75;;
30398;SDS011;17195;50.838;7.214;2022-07-23T00:26:23;16.58;;;12.85;;
30398;SDS011;17195;50.838;7.214;2022-07-23T00:28:49;15.27;;;12.80;;
30398;SDS011;17195;50.838;7.214;2022-07-23T00:31:14;17.35;;;12.70;;
30398;SDS011;17195;50.838;7.214;2022-07-23T00:33:40;18.40;;;13.27;;
30398;SDS011;17195;50.838;7.214;2022-07-23T00:36:06;15.20;;;12.50;;
30398;SDS011;17195;50.838;7.214;2022-07-23T00:38:31;16.70;;;13.02;;
30398;SDS011;17195;50.838;7.214;2022-07-23T00:40:57;19.05;;;13.98;;
30398;SDS011;17195;50.838;7.214;2022-07-23T00:43:23;17.55;;;12.70;;
30398;SDS011;17195;50.838;7.214;2022-07-23T00:45:48;18.70;;;13.18;;
30398;SDS011;17195;50.838;7.214;2022-07-23T00:48:14;16.55;;;13.27;;
30398;SDS011;17195;50.838;7.214;2022-07-23T00:50:40;16.00;;;12.80;;
30398;SDS011;17195;50.838;7.214;2022-07-23T00:53:05;19.20;;;13.40;;
30398;SDS011;17195;50.838;7.214;2022-07-23T00:55:33;21.92;;;15.18;;
30398;SDS011;17195;50.838;7.214;2022-07-23T00:57:59;17.85;;;14.00;;
30398;SDS011;17195;50.838;7.214;2022-07-23T01:00:25;23.27;;;15.68;;
30398;SDS011;17195;50.838;7.214;2022-07-23T01:02:51;21.70;;;15.63;;
30398;SDS011;17195;50.838;7.214;2022-07-23T01:05:16;21.80;;;15.77;;
30398;SDS011;17195;50.838;7.214;2022-07-23T01:07:46;18.73;;;14.98;;
30398;SDS011;17195;50.838;7.214;2022-07-23T01:10:16;17.77;;;14.38;;
30398;SDS011;17195;50.838;7.214;2022-07-23T01:13:04;17.92;;;13.95;;
30398;SDS011;17195;50.838;7.214;2022-07-23T01:15:32;18.10;;;13.95;;
30398;SDS011;17195;50.838;7.214;2022-07-23T01:18:00;17.25;;;14.50;;
30398;SDS011;17195;50.838;7.214;2022-07-23T01:20:27;15.70;;;14.07;;
30398;SDS011;17195;50.838;7.214;2022-07-23T01:22:53;17.92;;;14.25;;
30398;SDS011;17195;50.838;7.214;2022-07-23T01:25:19;18.70;;;13.27;;
30398;SDS011;17195;50.838;7.214;2022-07-23T01:27:45;17.48;;;13.48;;
30398;SDS011;17195;50.838;7.214;2022-07-23T01:30:11;17.50;;;13.55;;
30398;SDS011;17195;50.838;7.214;2022-07-23T01:32:37;19.60;;;14.70;;
30398;SDS011;17195;50.838;7.214;2022-07-23T01:35:03;17.52;;;14.70;;
30398;SDS011;17195;50.838;7.214;2022-07-23T01:37:29;17.20;;;13.60;;
30398;SDS011;17195;50.838;7.214;2022-07-23T01:39:55;17.80;;;14.48;;
30398;SDS011;17195;50.838;7.214;2022-07-23T01:42:20;22.40;;;15.90;;
30398;SDS011;17195;50.838;7.214;2022-07-23T01:44:46;15.73;;;13.20;;
30398;SDS011;17195;50.838;7.214;2022-07-23T01:47:12;20.17;;;14.65;;
30398;SDS011;17195;50.838;7.214;2022-07-23T01:49:37;19.77;;;14.55;;
30398;SDS011;17195;50.838;7.214;2022-07-23T01:52:03;17.10;;;13.45;;
30398;SDS011;17195;50.838;7.214;2022-07-23T01:54:32;18.52;;;13.32;;
30398;SDS011;17195;50.838;7.214;2022-07-23T01:56:58;18.63;;;13.52;;
30398;SDS011;17195;50.838;7.214;2022-07-23T01:59:25;18.42;;;12.82;;
30398;SDS011;17195;50.838;7.214;2022-07-23T02:01:51;17.73;;;13.25;;
30398;SDS011;17195;50.838;7.214;2022-07-23T02:04:17;24.90;;;16.17;;
30398;SDS011;17195;50.838;7.214;2022-07-23T02:06:46;18.48;;;15.10;;
30398;SDS011;17195;50.838;7.214;2022-07-23T02:09:12;19.42;;;15.55;;
30398;SDS011;17195;50.838;7.214;2022-07-23T02:11:38;18.92;;;15.43;;
30398;SDS011;17195;50.838;7.214;2022-07-23T02:14:04;17.80;;;15.07;;
30398;SDS011;17195;50.838;7.214;2022-07-23T02:16:29;19.75;;;15.40;;
30398;SDS011;17195;50.838;7.214;2022-07-23T02:18:55;20.42;;;15.07;;
30398;SDS011;17195;50.838;7.214;2022-07-23T02:21:20;20.30;;;15.30;;
30398;SDS011;17195;50.838;7.214;2022-07-23T02:23:46;20.83;;;15.57;;
30398;SDS011;17195;50.838;7.214;2022-07-23T02:26:12;18.40;;;14.60;;
30398;SDS011;17195;50.838;7.214;2022-07-23T02:28:37;18.55;;;14.38;;
30398;SDS011;17195;50.838;7.214;2022-07-23T02:31:03;19.67;;;15.02;;
30398;SDS011;17195;50.838;7.214;2022-07-23T02:33:29;22.02;;;17.00;;
30398;SDS011;17195;50.838;7.214;2022-07-23T02:35:54;20.25;;;15.93;;
30398;SDS011;17195;50.838;7.214;2022-07-23T02:38:20;23.17;;;17.20;;
30398;SDS011;17195;50.838;7.214;2022-07-23T02:40:46;20.98;;;15.98;;
30398;SDS011;17195;50.838;7.214;2022-07-23T02:43:11;19.55;;;15.85;;
30398;SDS011;17195;50.838;7.214;2022-07-23T02:45:37;24.77;;;17.42;;
30398;SDS011;17195;50.838;7.214;2022-07-23T02:48:02;23.83;;;18.05;;
30398;SDS011;17195;50.838;7.214;2022-07-23T02:50:28;25.60;;;17.40;;
30398;SDS011;17195;50.838;7.214;2022-07-23T02:52:54;23.50;;;17.42;;
30398;SDS011;17195;50.838;7.214;2022-07-23T02:55:19;22.27;;;16.98;;
30398;SDS011;17195;50.838;7.214;2022-07-23T02:57:45;23.08;;;17.58;;
30398;SDS011;17195;50.838;7.214;2022-07-23T03:00:11;22.45;;;18.17;;
30398;SDS011;17195;50.838;7.214;2022-07-23T03:02:37;23.60;;;16.73;;
30398;SDS011;17195;50.838;7.214;2022-07-23T03:05:02;19.52;;;16.95;;
30398;SDS011;17195;50.838;7.214;2022-07-23T03:07:28;23.38;;;17.63;;
30398;SDS011;17195;50.838;7.214;2022-07-23T03:09:54;20.23;;;17.25;;
30398;SDS011;17195;50.838;7.214;2022-07-23T03:12:19;23.30;;;17.08;;
30398;SDS011;17195;50.838;7.214;2022-07-23T03:14:45;21.85;;;17.10;;
30398;SDS011;17195;50.838;7.214;2022-07-23T03:17:10;21.17;;;17.42;;
30398;SDS011;17195;50.838;7.214;2022-07-23T03:19:36;19.25;;;16.63;;
30398;SDS011;17195;50.838;7.214;2022-07-23T03:22:02;27.00;;;18.40;;
30398;SDS011;17195;50.838;7.214;2022-07-23T03:24:28;24.65;;;19.50;;
30398;SDS011;17195;50.838;7.214;2022-07-23T03:27:13;22.70;;;16.83;;
30398;SDS011;17195;50.838;7.214;2022-07-23T03:29:39;23.08;;;17.92;;
30398;SDS011;17195;50.838;7.214;2022-07-23T03:32:05;24.63;;;19.35;;
30398;SDS011;17195;50.838;7.214;2022-07-23T03:34:30;21.48;;;17.38;;
30398;SDS011;17195;50.838;7.214;2022-07-23T03:36:56;21.90;;;16.50;;
30398;SDS011;17195;50.838;7.214;2022-07-23T03:39:21;22.30;;;18.13;;
30398;SDS011;17195;50.838;7.214;2022-07-23T03:41:47;27.85;;;19.10;;
30398;SDS011;17195;50.838;7.214;2022-07-23T03:44:12;21.55;;;17.35;;
30398;SDS011;17195;50.838;7.214;2022-07-23T03:46:38;24.60;;;18.35;;
30398;SDS011;17195;50.838;7.214;2022-07-23T03:49:03;24.40;;;17.63;;
30398;SDS011;17195;50.838;7.214;2022-07-23T03:51:29;22.95;;;17.90;;
30398;SDS011;17195;50.838;7.214;2022-07-23T03:53:54;22.67;;;18.02;;
30398;SDS011;17195;50.838;7.214;2022-07-23T03:56:20;28.13;;;20.48;;
30398;SDS011;17195;50.838;7.214;2022-07-23T03:58:46;29.73;;;20.42;;
30398;SDS011;17195;50.838;7.214;2022-07-23T04:01:12;28.45;;;21.80;;
30398;SDS011;17195;50.838;7.214;2022-07-23T04:03:38;29.52;;;21.33;;
30398;SDS011;17195;50.838;7.214;2022-07-23T04:06:03;28.83;;;21.83;;
30398;SDS011;17195;50.838;7.214;2022-07-23T04:08:29;29.67;;;20.52;;
30398;SDS011;17195;50.838;7.214;2022-07-23T04:10:54;26.80;;;19.92;;
30398;SDS011;17195;50.838;7.214;2022-07-23T04:13:20;27.17;;;19.38;;
30398;SDS011;17195;50.838;7.214;2022-07-23T04:15:46;25.55;;;19.88;;
30398;SDS011;17195;50.838;7.214;2022-07-23T04:18:11;27.23;;;20.13;;
30398;SDS011;17195;50.838;7.214;2022-07-23T04:20:37;30.38;;;20.58;;
30398;SDS011;17195;50.838;7.214;2022-07-23T04:23:03;30.65;;;21.67;;
30398;SDS011;17195;50.838;7.214;2022-07-23T04:25:28;28.13;;;20.23;;
30398;SDS011;17195;50.838;7.214;2022-07-23T04:27:54;35.90;;;22.70;;
30398;SDS011;17195;50.838;7.214;2022-07-23T04:30:19;31.35;;;21.55;;
30398;SDS011;17195;50.838;7.214;2022-07-23T04:32:45;30.25;;;21.88;;
30398;SDS011;17195;50.838;7.214;2022-07-23T04:35:10;32.75;;;22.88;;
30398;SDS011;17195;50.838;7.214;2022-07-23T04:37:36;34.92;;;23.80;;
30398;SDS011;17195;50.838;7.214;2022-07-23T04:40:02;38.08;;;24.95;;
30398;SDS011;17195;50.838;7.214;2022-07-23T04:42:27;35.47;;;24.98;;
30398;SDS011;17195;50.838;7.214;2022-07-23T04:44:53;39.05;;;26.38;;
30398;SDS011;17195;50.838;7.214;2022-07-23T04:47:18;39.28;;;26.05;;
30398;SDS011;17195;50.838;7.214;2022-07-23T04:49:44;36.85;;;24.65;;
30398;SDS011;17195;50.838;7.214;2022-07-23T04:52:09;31.55;;;22.67;;
30398;SDS011;17195;50.838;7.214;2022-07-23T04:54:35;32.90;;;24.00;;
30398;SDS011;17195;50.838;7.214;2022-07-23T04:57:01;38.03;;;25.35;;
30398;SDS011;17195;50.838;7.214;2022-07-23T04:59:26;33.83;;;23.75;;
30398;SDS011;17195;50.838;7.214;2022-07-23T05:01:52;37.35;;;23.70;;
30398;SDS011;17195;50.838;7.214;2022-07-23T05:04:17;32.50;;;22.42;;
30398;SDS011;17195;50.838;7.214;2022-07-23T05:06:43;30.17;;;22.67;;
30398;SDS011;17195;50.838;7.214;2022-07-23T05:09:08;30.23;;;22.17;;
30398;SDS011;17195;50.838;7.214;2022-07-23T05:11:34;33.53;;;23.27;;
30398;SDS011;17195;50.838;7.214;2022-07-23T05:13:59;32.97;;;23.63;;
30398;SDS011;17195;50.838;7.214;2022-07-23T05:16:25;29.70;;;22.08;;
30398;SDS011;17195;50.838;7.214;2022-07-23T05:18:50;27.73;;;21.25;;
30398;SDS011;17195;50.838;7.214;2022-07-23T05:21:16;29.30;;;20.17;;
30398;SDS011;17195;50.838;7.214;2022-07-23T05:23:42;33.63;;;22.13;;
30398;SDS011;17195;50.838;7.214;2022-07-23T05:26:07;31.13;;;21.02;;
30398;SDS011;17195;50.838;7.214;2022-07-23T05:28:33;30.88;;;20.45;;
30398;SDS011;17195;50.838;7.214;2022-07-23T05:30:58;29.23;;;19.63;;
30398;SDS011;17195;50.838;7.214;2022-07-23T05:33:24;26.95;;;19.17;;
30398;SDS011;17195;50.838;7.214;2022-07-23T05:35:49;31.73;;;20.33;;
30398;SDS011;17195;50.838;7.214;2022-07-23T05:38:15;29.50;;;20.10;;
30398;SDS011;17195;50.838;7.214;2022-07-23T05:40:40;26.20;;;18.48;;
30398;SDS011;17195;50.838;7.214;2022-07-23T05:43:06;29.60;;;19.65;;
30398;SDS011;17195;50.838;7.214;2022-07-23T05:45:31;29.63;;;20.20;;
30398;SDS011;17195;50.838;7.214;2022-07-23T05:47:57;25.85;;;18.50;;
30398;SDS011;17195;50.838;7.214;2022-07-23T05:50:23;28.23;;;19.25;;
30398;SDS011;17195;50.838;7.214;2022-07-23T05:52:48;25.38;;;18.25;;
30398;SDS011;17195;50.838;7.214;2022-07-23T05:55:14;28.13;;;18.92;;
30398;SDS011;17195;50.838;7.214;2022-07-23T05:57:40;27.75;;;18.88;;
30398;SDS011;17195;50.838;7.214;2022-07-23T06:00:06;23.65;;;17.90;;
30398;SDS011;17195;50.838;7.214;2022-07-23T06:02:33;31.35;;;19.10;;
30398;SDS011;17195;50.838;7.214;2022-07-23T06:04:58;27.55;;;18.25;;
30398;SDS011;17195;50.838;7.214;2022-07-23T06:07:24;28.13;;;18.08;;
30398;SDS011;17195;50.838;7.214;2022-07-23T06:09:49;25.00;;;16.20;;
30398;SDS011;17195;50.838;7.214;2022-07-23T06:12:15;24.75;;;17.13;;
30398;SDS011;17195;50.838;7.214;2022-07-23T06:14:41;24.67;;;17.88;;
30398;SDS011;17195;50.838;7.214;2022-07-23T06:17:07;23.63;;;17.05;;
30398;SDS011;17195;50.838;7.214;2022-07-23T06:19:33;25.38;;;16.98;;
30398;SDS011;17195;50.838;7.214;2022-07-23T06:21:59;22.75;;;15.45;;
30398;SDS011;17195;50.838;7.214;2022-07-23T06:24:24;25.55;;;16.52;;
30398;SDS011;17195;50.838;7.214;2022-07-23T06:26:50;21.25;;;15.18;;
30398;SDS011;17195;50.838;7.214;2022-07-23T06:29:16;26.10;;;16.55;;
30398;SDS011;17195;50.838;7.214;2022-07-23T06:31:41;23.42;;;17.25;;
30398;SDS011;17195;50.838;7.214;2022-07-23T06:34:07;26.17;;;17.42;;
30398;SDS011;17195;50.838;7.214;2022-07-23T06:36:32;27.10;;;17.30;;
30398;SDS011;17195;50.838;7.214;2022-07-23T06:38:58;27.23;;;17.05;;
30398;SDS011;17195;50.838;7.214;2022-07-23T06:41:23;23.23;;;16.83;;
30398;SDS011;17195;50.838;7.214;2022-07-23T06:43:49;23.27;;;16.45;;
30398;SDS011;17195;50.838;7.214;2022-07-23T06:46:14;22.77;;;15.23;;
30398;SDS011;17195;50.838;7.214;2022-07-23T06:48:40;23.45;;;14.90;;
30398;SDS011;17195;50.838;7.214;2022-07-23T06:51:05;20.15;;;13.68;;
30398;SDS011;17195;50.838;7.214;2022-07-23T06:53:31;18.08;;;13.90;;
30398;SDS011;17195;50.838;7.214;2022-07-23T06:55:57;19.90;;;13.73;;
30398;SDS011;17195;50.838;7.214;2022-07-23T06:58:22;20.98;;;14.23;;
30398;SDS011;17195;50.838;7.214;2022-07-23T07:00:48;15.23;;;11.73;;
30398;SDS011;17195;50.838;7.214;2022-07-23T07:03:13;22.05;;;14.20;;
30398;SDS011;17195;50.838;7.214;2022-07-23T07:05:39;17.13;;;12.02;;
30398;SDS011;17195;50.838;7.214;2022-07-23T07:08:05;19.75;;;12.73;;
30398;SDS011;17195;50.838;7.214;2022-07-23T07:10:31;15.23;;;11.23;;
30398;SDS011;17195;50.838;7.214;2022-07-23T07:12:56;14.43;;;10.98;;
30398;SDS011;17195;50.838;7.214;2022-07-23T07:15:22;16.30;;;11.52;;
30398;SDS011;17195;50.838;7.214;2022-07-23T07:17:48;15.32;;;11.02;;
30398;SDS011;17195;50.838;7.214;2022-07-23T07:20:13;15.95;;;11.02;;
30398;SDS011;17195;50.838;7.214;2022-07-23T07:22:39;14.63;;;10.70;;
30398;SDS011;17195;50.838;7.214;2022-07-23T07:25:05;11.35;;;8.40;;
30398;SDS011;17195;50.838;7.214;2022-07-23T07:27:31;11.40;;;8.45;;
30398;SDS011;17195;50.838;7.214;2022-07-23T07:29:57;12.73;;;8.77;;
30398;SDS011;17195;50.838;7.214;2022-07-23T07:32:22;13.05;;;9.15;;
30398;SDS011;17195;50.838;7.214;2022-07-23T07:34:48;10.57;;;7.28;;
30398;SDS011;17195;50.838;7.214;2022-07-23T07:37:13;9.82;;;7.72;;
30398;SDS011;17195;50.838;7.214;2022-07-23T07:39:39;11.57;;;7.78;;
30398;SDS011;17195;50.838;7.214;2022-07-23T07:42:04;10.48;;;6.35;;
30398;SDS011;17195;50.838;7.214;2022-07-23T07:44:30;9.57;;;6.75;;
30398;SDS011;17195;50.838;7.214;2022-07-23T07:46:55;10.85;;;6.32;;
30398;SDS011;17195;50.838;7.214;2022-07-23T07:49:21;8.85;;;6.05;;
30398;SDS011;17195;50.838;7.214;2022-07-23T07:51:47;7.95;;;5.47;;
30398;SDS011;17195;50.838;7.214;2022-07-23T07:54:13;8.60;;;5.90;;
30398;SDS011;17195;50.838;7.214;2022-07-23T07:56:38;8.23;;;5.20;;
30398;SDS011;17195;50.838;7.214;2022-07-23T07:59:04;8.20;;;6.30;;
30398;SDS011;17195;50.838;7.214;2022-07-23T08:01:30;8.75;;;7.00;;
30398;SDS011;17195;50.838;7.214;2022-07-23T08:03:56;9.75;;;6.47;;
30398;SDS011;17195;50.838;7.214;2022-07-23T08:06:22;9.00;;;7.10;;
30398;SDS011;17195;50.838;7.214;2022-07-23T08:08:47;7.43;;;6.45;;
30398;SDS011;17195;50.838;7.214;2022-07-23T08:11:13;9.57;;;6.50;;
30398;SDS011;17195;50.838;7.214;2022-07-23T08:13:39;8.68;;;6.15;;
30398;SDS011;17195;50.838;7.214;2022-07-23T08:16:04;10.93;;;6.70;;
30398;SDS011;17195;50.838;7.214;2022-07-23T08:18:30;10.57;;;7.03;;
30398;SDS011;17195;50.838;7.214;2022-07-23T08:20:55;8.63;;;6.30;;
30398;SDS011;17195;50.838;7.214;2022-07-23T08:23:21;10.15;;;7.60;;
30398;SDS011;17195;50.838;7.214;2022-07-23T08:25:46;8.45;;;6.22;;
30398;SDS011;17195;50.838;7.214;2022-07-23T08:28:13;10.20;;;6.90;;
30398;SDS011;17195;50.838;7.214;2022-07-23T08:30:40;14.15;;;7.22;;
30398;SDS011;17195;50.838;7.214;2022-07-23T08:33:09;11.02;;;7.30;;
30398;SDS011;17195;50.838;7.214;2022-07-23T08:35:38;10.95;;;7.18;;
30398;SDS011;17195;50.838;7.214;2022-07-23T08:38:10;8.35;;;6.22;;
30398;SDS011;17195;50.838;7.214;2022-07-23T08:40:38;9.40;;;6.90;;
30398;SDS011;17195;50.838;7.214;2022-07-23T08:43:06;10.05;;;5.78;;
30398;SDS011;17195;50.838;7.214;2022-07-23T08:45:37;9.63;;;6.05;;
30398;SDS011;17195;50.838;7.214;2022-07-23T08:48:11;8.63;;;5.70;;
30398;SDS011;17195;50.838;7.214;2022-07-23T08:50:42;7.25;;;5.85;;
30398;SDS011;17195;50.838;7.214;2022-07-23T08:53:09;9.50;;;5.63;;
30398;SDS011;17195;50.838;7.214;2022-07-23T08:55:35;9.98;;;6.18;;
30398;SDS011;17195;50.838;7.214;2022-07-23T08:58:01;8.10;;;5.95;;
30398;SDS011;17195;50.838;7.214;2022-07-23T09:00:27;8.80;;;5.88;;
30398;SDS011;17195;50.838;7.214;2022-07-23T09:02:53;9.82;;;5.65;;
30398;SDS011;17195;50.838;7.214;2022-07-23T09:05:18;10.23;;;6.75;;
30398;SDS011;17195;50.838;7.214;2022-07-23T09:08:04;7.18;;;5.40;;
30398;SDS011;17195;50.838;7.214;2022-07-23T09:13:27;9.98;;;5.97;;
30398;SDS011;17195;50.838;7.214;2022-07-23T09:15:53;8.80;;;4.95;;
30398;SDS011;17195;50.838;7.214;2022-07-23T09:18:31;13.77;;;6.60;;
30398;SDS011;17195;50.838;7.214;2022-07-23T09:21:14;9.25;;;5.30;;
30398;SDS011;17195;50.838;7.214;2022-07-23T09:26:20;6.68;;;5.20;;
30398;SDS011;17195;50.838;7.214;2022-07-23T09:31:19;7.78;;;5.80;;
30398;SDS011;17195;50.838;7.214;2022-07-23T09:33:45;8.95;;;5.30;;
30398;SDS011;17195;50.838;7.214;2022-07-23T09:36:10;6.35;;;5.15;;
30398;SDS011;17195;50.838;7.214;2022-07-23T09:38:36;10.20;;;6.47;;
30398;SDS011;17195;50.838;7.214;2022-07-23T09:41:13;8.15;;;5.55;;
30398;SDS011;17195;50.838;7.214;2022-07-23T09:43:39;8.25;;;4.10;;
30398;SDS011;17195;50.838;7.214;2022-07-23T09:48:47;8.90;;;6.07;;
30398;SDS011;17195;50.838;7.214;2022-07-23T09:51:14;7.93;;;4.85;;
30398;SDS011;17195;50.838;7.214;2022-07-23T09:54:00;6.68;;;4.47;;
30398;SDS011;17195;50.838;7.214;2022-07-23T09:56:25;6.70;;;4.43;;
30398;SDS011;17195;50.838;7.214;2022-07-23T09:58:52;6.60;;;4.28;;
30398;SDS011;17195;50.838;7.214;2022-07-23T10:01:48;16.83;;;5.00;;
30398;SDS011;17195;50.838;7.214;2022-07-23T10:04:15;8.68;;;4.82;;
30398;SDS011;17195;50.838;7.214;2022-07-23T10:06:41;7.25;;;3.85;;
30398;SDS011;17195;50.838;7.214;2022-07-23T10:09:08;6.60;;;3.78;;
30398;SDS011;17195;50.838;7.214;2022-07-23T10:11:37;6.35;;;4.07;;
30398;SDS011;17195;50.838;7.214;2022-07-23T10:14:04;5.07;;;3.05;;
30398;SDS011;17195;50.838;7.214;2022-07-23T10:16:31;5.40;;;3.65;;
30398;SDS011;17195;50.838;7.214;2022-07-23T10:18:56;5.03;;;3.42;;
30398;SDS011;17195;50.838;7.214;2022-07-23T10:21:27;5.70;;;3.70;;
30398;SDS011;17195;50.838;7.214;2022-07-23T10:24:12;5.80;;;3.00;;
30398;SDS011;17195;50.838;7.214;2022-07-23T10:26:51;4.53;;;3.70;;
30398;SDS011;17195;50.838;7.214;2022-07-23T10:30:02;6.93;;;2.80;;
30398;SDS011;17195;50.838;7.214;2022-07-23T10:35:52;3.60;;;2.85;;
30398;SDS011;17195;50.838;7.214;2022-07-23T10:38:42;3.80;;;3.05;;
30398;SDS011;17195;50.838;7.214;2022-07-23T10:41:30;4.38;;;3.40;;
30398;SDS011;17195;50.838;7.214;2022-07-23T10:46:36;4.93;;;3.97;;
30398;SDS011;17195;50.838;7.214;2022-07-23T10:49:24;6.40;;;3.10;;
30398;SDS011;17195;50.838;7.214;2022-07-23T10:54:39;3.95;;;2.75;;
30398;SDS011;17195;50.838;7.214;2022-07-23T10:57:06;5.18;;;3.08;;
30398;SDS011;17195;50.838;7.214;2022-07-23T11:02:28;2.53;;;1.90;;
30398;SDS011;17195;50.838;7.214;2022-07-23T11:04:58;3.38;;;2.22;;
30398;SDS011;17195;50.838;7.214;2022-07-23T11:07:25;2.30;;;2.00;;
30398;SDS011;17195;50.838;7.214;2022-07-23T11:09:51;3.03;;;2.40;;
30398;SDS011;17195;50.838;7.214;2022-07-23T11:15:00;4.60;;;2.78;;
30398;SDS011;17195;50.838;7.214;2022-07-23T11:17:29;3.25;;;2.47;;
30398;SDS011;17195;50.838;7.214;2022-07-23T11:25:04;3.38;;;2.28;;
30398;SDS011;17195;50.838;7.214;2022-07-23T11:27:37;7.43;;;2.95;;
30398;SDS011;17195;50.838;7.214;2022-07-23T11:30:04;4.07;;;3.08;;
30398;SDS011;17195;50.838;7.214;2022-07-23T11:32:32;4.50;;;2.97;;
30398;SDS011;17195;50.838;7.214;2022-07-23T11:35:18;5.30;;;3.85;;
30398;SDS011;17195;50.838;7.214;2022-07-23T11:37:45;3.67;;;3.25;;
30398;SDS011;17195;50.838;7.214;2022-07-23T11:40:13;5.63;;;3.50;;
30398;SDS011;17195;50.838;7.214;2022-07-23T11:48:04;4.80;;;3.30;;
30398;SDS011;17195;50.838;7.214;2022-07-23T11:50:32;4.20;;;3.72;;
30398;SDS011;17195;50.838;7.214;2022-07-23T11:52:59;4.45;;;3.45;;
30398;SDS011;17195;50.838;7.214;2022-07-23T11:55:25;4.53;;;3.58;;
30398;SDS011;17195;50.838;7.214;2022-07-23T11:57:51;4.90;;;3.70;;
30398;SDS011;17195;50.838;7.214;2022-07-23T12:00:19;6.75;;;3.72;;
30398;SDS011;17195;50.838;7.214;2022-07-23T12:02:50;4.47;;;3.60;;
30398;SDS011;17195;50.838;7.214;2022-07-23T12:05:19;4.10;;;3.67;;
30398;SDS011;17195;50.838;7.214;2022-07-23T12:07:46;7.65;;;4.25;;
30398;SDS011;17195;50.838;7.214;2022-07-23T12:10:23;5.85;;;3.75;;
30398;SDS011;17195;50.838;7.214;2022-07-23T12:12:55;4.50;;;3.90;;
30398;SDS011;17195;50.838;7.214;2022-07-23T12:15:26;4.88;;;4.28;;
30398;SDS011;17195;50.838;7.214;2022-07-23T12:18:04;4.50;;;4.03;;
30398;SDS011;17195;50.838;7.214;2022-07-23T12:20:32;6.68;;;4.07;;
30398;SDS011;17195;50.838;7.214;2022-07-23T12:23:03;5.60;;;3.80;;
30398;SDS011;17195;50.838;7.214;2022-07-23T12:25:32;6.50;;;3.80;;
30398;SDS011;17195;50.838;7.214;2022-07-23T12:30:33;4.95;;;4.22;;
30398;SDS011;17195;50.838;7.214;2022-07-23T12:33:03;7.63;;;4.57;;
30398;SDS011;17195;50.838;7.214;2022-07-23T12:35:31;4.80;;;3.70;;
30398;SDS011;17195;50.838;7.214;2022-07-23T12:38:08;5.68;;;4.05;;
30398;SDS011;17195;50.838;7.214;2022-07-23T12:40:37;3.78;;;3.38;;
30398;SDS011;17195;50.838;7.214;2022-07-23T12:43:12;5.53;;;3.97;;
30398;SDS011;17195;50.838;7.214;2022-07-23T12:55:44;6.97;;;4.53;;
30398;SDS011;17195;50.838;7.214;2022-07-23T12:58:12;5.55;;;4.40;;
30398;SDS011;17195;50.838;7.214;2022-07-23T13:00:54;5.90;;;5.30;;
30398;SDS011;17195;50.838;7.214;2022-07-23T13:03:24;7.00;;;5.43;;
30398;SDS011;17195;50.838;7.214;2022-07-23T13:05:51;6.13;;;5.20;;
30398;SDS011;17195;50.838;7.214;2022-07-23T13:08:17;5.65;;;4.40;;
30398;SDS011;17195;50.838;7.214;2022-07-23T13:10:42;4.97;;;4.00;;
30398;SDS011;17195;50.838;7.214;2022-07-23T13:13:11;7.32;;;4.45;;
30398;SDS011;17195;50.838;7.214;2022-07-23T13:15:37;6.38;;;4.32;;
30398;SDS011;17195;50.838;7.214;2022-07-23T13:18:02;4.60;;;4.13;;
30398;SDS011;17195;50.838;7.214;2022-07-23T13:20:28;6.30;;;4.10;;
30398;SDS011;17195;50.838;7.214;2022-07-23T13:22:53;5.68;;;4.13;;
30398;SDS011;17195;50.838;7.214;2022-07-23T13:25:19;5.70;;;4.03;;
30398;SDS011;17195;50.838;7.214;2022-07-23T13:27:44;5.88;;;3.80;;
30398;SDS011;17195;50.838;7.214;2022-07-23T13:30:10;6.20;;;4.03;;
30398;SDS011;17195;50.838;7.214;2022-07-23T13:32:36;5.95;;;4.35;;
30398;SDS011;17195;50.838;7.214;2022-07-23T13:35:02;7.05;;;4.40;;
30398;SDS011;17195;50.838;7.214;2022-07-23T13:37:28;6.00;;;5.00;;
30398;SDS011;17195;50.838;7.214;2022-07-23T13:39:54;5.78;;;4.00;;
30398;SDS011;17195;50.838;7.214;2022-07-23T13:42:19;5.30;;;4.80;;
30398;SDS011;17195;50.838;7.214;2022-07-23T13:44:45;6.20;;;5.32;;
30398;SDS011;17195;50.838;7.214;2022-07-23T13:47:11;5.22;;;4.70;;
30398;SDS011;17195;50.838;7.214;2022-07-23T13:49:36;5.70;;;4.40;;
30398;SDS011;17195;50.838;7.214;2022-07-23T13:52:02;6.30;;;5.20;;
30398;SDS011;17195;50.838;7.214;2022-07-23T13:54:28;8.57;;;6.68;;
30398;SDS011;17195;50.838;7.214;2022-07-23T13:56:54;6.03;;;5.43;;
30398;SDS011;17195;50.838;7.214;2022-07-23T13:59:20;6.10;;;5.50;;
30398;SDS011;17195;50.838;7.214;2022-07-23T14:01:46;6.38;;;5.30;;
30398;SDS011;17195;50.838;7.214;2022-07-23T14:04:12;6.97;;;5.00;;
30398;SDS011;17195;50.838;7.214;2022-07-23T14:06:37;5.60;;;4.95;;
30398;SDS011;17195;50.838;7.214;2022-07-23T14:09:03;5.45;;;4.85;;
30398;SDS011;17195;50.838;7.214;2022-07-23T14:11:28;8.20;;;5.80;;
30398;SDS011;17195;50.838;7.214;2022-07-23T14:13:55;6.88;;;5.45;;
30398;SDS011;17195;50.838;7.214;2022-07-23T14:16:21;9.07;;;6.35;;
30398;SDS011;17195;50.838;7.214;2022-07-23T14:18:47;5.95;;;5.18;;
30398;SDS011;17195;50.838;7.214;2022-07-23T14:21:12;9.65;;;5.60;;
30398;SDS011;17195;50.838;7.214;2022-07-23T14:23:38;6.80;;;4.68;;
30398;SDS011;17195;50.838;7.214;2022-07-23T14:26:04;5.30;;;4.53;;
30398;SDS011;17195;50.838;7.214;2022-07-23T14:28:29;7.10;;;4.90;;
30398;SDS011;17195;50.838;7.214;2022-07-23T14:30:57;5.35;;;4.18;;
30398;SDS011;17195;50.838;7.214;2022-07-23T14:33:22;5.85;;;4.10;;
30398;SDS011;17195;50.838;7.214;2022-07-23T14:35:48;6.38;;;4.32;;
30398;SDS011;17195;50.838;7.214;2022-07-23T14:38:13;4.70;;;3.75;;
30398;SDS011;17195;50.838;7.214;2022-07-23T14:40:39;6.25;;;3.90;;
30398;SDS011;17195;50.838;7.214;2022-07-23T14:43:05;4.00;;;3.60;;
30398;SDS011;17195;50.838;7.214;2022-07-23T14:45:31;5.78;;;3.22;;
30398;SDS011;17195;50.838;7.214;2022-07-23T14:47:56;4.15;;;3.47;;
30398;SDS011;17195;50.838;7.214;2022-07-23T14:50:23;4.28;;;3.22;;
30398;SDS011;17195;50.838;7.214;2022-07-23T14:52:48;5.63;;;3.13;;
30398;SDS011;17195;50.838;7.214;2022-07-23T14:55:14;4.60;;;3.08;;
30398;SDS011;17195;50.838;7.214;2022-07-23T14:57:42;5.35;;;3.22;;
30398;SDS011;17195;50.838;7.214;2022-07-23T15:00:07;4.47;;;3.00;;
30398;SDS011;17195;50.838;7.214;2022-07-23T15:02:34;5.53;;;3.55;;
30398;SDS011;17195;50.838;7.214;2022-07-23T15:04:59;4.25;;;3.47;;
30398;SDS011;17195;50.838;7.214;2022-07-23T15:07:28;5.22;;;3.40;;
30398;SDS011;17195;50.838;7.214;2022-07-23T15:09:55;4.45;;;3.08;;
30398;SDS011;17195;50.838;7.214;2022-07-23T15:12:21;3.53;;;2.80;;
30398;SDS011;17195;50.838;7.214;2022-07-23T15:14:47;3.50;;;2.97;;
30398;SDS011;17195;50.838;7.214;2022-07-23T15:17:12;3.60;;;2.85;;
30398;SDS011;17195;50.838;7.214;2022-07-23T15:19:38;3.90;;;2.80;;
30398;SDS011;17195;50.838;7.214;2022-07-23T15:22:04;3.67;;;3.28;;